Time;durP1;ratioP1;P1;durP2;ratioP2;P2;SDS_P1;SDS_P2;PMS_P1;PMS_P2;Temp;Humidity;BMP_temperature;BMP_pressure;BME280_temperature;BME280_humidity;BME280_pressure;Samples;Min_cycle;Max_cycle;Signal;HPM_P1;HPM_P2
2022/04/17 00:01:32;;;;;;;6.72;5.10;;;6.60;86.00;;;;;;5032409;28;20471;-48
2022/04/17 00:03:58;;;;;;;6.47;5.75;;;6.50;86.30;;;;;;5050628;28;20120;-46
2022/04/17 00:06:24;;;;;;;7.10;5.03;;;6.50;87.10;;;;;;5038703;28;20045;-46
2022/04/17 00:08:50;;;;;;;6.87;5.37;;;6.50;87.80;;;;;;5034860;28;20329;-48
2022/04/17 00:11:16;;;;;;;9.68;6.43;;;6.40;88.50;;;;;;5050409;28;20519;-47
2022/04/17 00:13:44;;;;;;;5.85;5.25;;;6.40;89.60;;;;;;5033450;28;20049;-46
2022/04/17 00:16:10;;;;;;;7.10;5.65;;;6.50;89.70;;;;;;5030247;28;20091;-46
2022/04/17 00:18:35;;;;;;;8.48;6.20;;;6.40;89.40;;;;;;5045831;28;20457;-48
2022/04/17 00:21:02;;;;;;;7.13;5.77;;;6.40;89.00;;;;;;5038155;28;20036;-46
2022/04/17 00:23:28;;;;;;;;;;;6.40;88.90;;;;;;5030761;28;20131;-49
2022/04/17 00:25:53;;;;;;;8.57;6.18;;;6.40;88.80;;;;;;5030099;28;20394;-46
2022/04/17 00:28:19;;;;;;;8.77;6.75;;;6.40;88.40;;;;;;5039496;28;20033;-46
2022/04/17 00:30:44;;;;;;;10.13;7.33;;;6.30;88.40;;;;;;5047711;28;20040;-46
2022/04/17 00:33:11;;;;;;;7.00;5.73;;;6.40;88.70;;;;;;5032286;28;20041;-48
2022/04/17 00:35:38;;;;;;;8.13;5.55;;;6.30;89.00;;;;;;5027694;28;20041;-47
2022/04/17 00:38:04;;;;;;;7.80;5.85;;;6.30;88.80;;;;;;5032732;28;20038;-46
2022/04/17 00:40:30;;;;;;;8.38;6.32;;;6.30;89.10;;;;;;5031745;28;20084;-46
2022/04/17 00:42:58;;;;;;;8.00;6.90;;;6.30;89.20;;;;;;5030435;28;20045;-46
2022/04/17 00:45:23;;;;;;;9.82;6.68;;;6.30;89.00;;;;;;5030590;28;20406;-50
2022/04/17 00:47:49;;;;;;;7.38;5.93;;;6.30;88.70;;;;;;5039522;28;20132;-46
2022/04/17 00:50:15;;;;;;;9.33;6.67;;;6.30;88.90;;;;;;5046993;28;20076;-49
2022/04/17 00:52:42;;;;;;;8.93;6.50;;;6.30;88.80;;;;;;5048658;28;20044;-47
2022/04/17 00:55:09;;;;;;;11.05;6.82;;;6.30;88.90;;;;;;5045464;28;20279;-46
2022/04/17 00:57:35;;;;;;;11.68;6.53;;;6.30;88.90;;;;;;5030992;28;20056;-47
2022/04/17 01:00:01;;;;;;;9.52;6.90;;;6.30;89.30;;;;;;5038064;28;20029;-47
2022/04/17 01:02:26;;;;;;;13.75;7.72;;;6.30;89.60;;;;;;5047962;28;20060;-47
2022/04/17 01:04:52;;;;;;;10.27;7.17;;;6.20;89.70;;;;;;5032366;28;20490;-46
2022/04/17 01:07:22;;;;;;;8.83;7.07;;;6.20;90.00;;;;;;5047523;28;20383;-49
2022/04/17 01:09:50;;;;;;;9.57;7.38;;;6.20;90.10;;;;;;5047441;28;20291;-47
2022/04/17 01:12:17;;;;;;;10.98;7.82;;;6.10;90.10;;;;;;5047874;28;20430;-49
2022/04/17 01:14:43;;;;;;;9.38;6.60;;;6.10;90.40;;;;;;5042771;28;20064;-46
2022/04/17 01:17:09;;;;;;;9.60;6.82;;;6.00;90.40;;;;;;5033826;28;20491;-46
2022/04/17 01:19:37;;;;;;;10.23;7.22;;;6.00;91.10;;;;;;5041980;28;20044;-49
2022/04/17 01:22:06;;;;;;;10.40;7.72;;;6.00;91.30;;;;;;5046535;28;20108;-48
2022/04/17 01:27:19;;;;;;;10.15;7.13;;;5.90;91.70;;;;;;5029542;28;20125;-47
2022/04/17 01:29:46;;;;;;;9.13;7.28;;;5.90;92.30;;;;;;5033337;28;20516;-47
2022/04/17 01:32:13;;;;;;;11.55;8.18;;;5.90;93.10;;;;;;5036648;28;20037;-46
2022/04/17 01:34:38;;;;;;;11.20;7.70;;;5.90;93.60;;;;;;5047934;28;20099;-46
2022/04/17 01:37:05;;;;;;;9.23;6.93;;;5.80;93.50;;;;;;5047373;28;20116;-46
2022/04/17 01:39:31;;;;;;;11.13;7.70;;;5.80;93.50;;;;;;5042692;28;20048;-47
2022/04/17 01:41:58;;;;;;;13.18;6.97;;;5.80;93.30;;;;;;5049192;28;20091;-46
2022/04/17 01:44:28;;;;;;;9.00;7.10;;;5.80;94.00;;;;;;5034853;28;20033;-49
2022/04/17 01:46:54;;;;;;;9.75;7.03;;;5.80;94.20;;;;;;5031561;28;20116;-46
2022/04/17 01:49:21;;;;;;;8.73;7.28;;;5.80;93.80;;;;;;5047654;28;20032;-48
2022/04/17 01:51:47;;;;;;;;;;;5.80;94.10;;;;;;5047403;28;20051;-49
2022/04/17 01:54:15;;;;;;;9.80;7.57;;;5.80;94.90;;;;;;5042643;28;19920;-50
2022/04/17 01:56:42;;;;;;;9.13;6.80;;;5.80;94.80;;;;;;5039526;28;20040;-48
2022/04/17 01:59:08;;;;;;;7.38;6.68;;;5.70;94.40;;;;;;5045398;28;20041;-47
2022/04/17 02:01:37;;;;;;;8.88;6.78;;;5.70;94.40;;;;;;5045502;28;20078;-45
2022/04/17 02:04:04;;;;;;;7.68;6.38;;;5.70;94.80;;;;;;5053209;28;20045;-48
2022/04/17 02:06:30;;;;;;;9.32;7.35;;;5.70;95.20;;;;;;5050585;28;20532;-47
2022/04/17 02:08:56;;;;;;;12.27;7.72;;;5.60;95.70;;;;;;5051689;28;20045;-47
2022/04/17 02:11:24;;;;;;;11.43;7.60;;;5.60;95.90;;;;;;5015405;28;20518;-46
2022/04/17 02:13:50;;;;;;;11.52;7.47;;;5.60;96.20;;;;;;5032519;28;20038;-46
2022/04/17 02:16:19;;;;;;;9.30;7.78;;;5.60;96.10;;;;;;5051420;28;20033;-46
2022/04/17 02:18:49;;;;;;;11.77;8.20;;;5.60;96.10;;;;;;5033204;28;20188;-46
2022/04/17 02:21:16;;;;;;;10.35;7.57;;;5.60;96.10;;;;;;5033095;28;20037;-46
2022/04/17 02:23:43;;;;;;;10.15;7.15;;;5.60;96.30;;;;;;5050370;28;20033;-47
2022/04/17 02:26:10;;;;;;;8.50;6.68;;;5.60;96.50;;;;;;5051960;28;20036;-47
2022/04/17 02:28:37;;;;;;;11.73;8.00;;;5.60;96.70;;;;;;5050467;28;20617;-47
2022/04/17 02:31:05;;;;;;;7.78;6.60;;;5.60;96.40;;;;;;5045086;28;20116;-47
2022/04/17 02:33:31;;;;;;;9.15;8.05;;;5.60;96.10;;;;;;5039459;28;20116;-46
2022/04/17 02:35:57;;;;;;;;;;;5.60;96.10;;;;;;5051424;28;20158;-47
2022/04/17 02:38:23;;;;;;;9.80;6.85;;;5.60;96.10;;;;;;5044296;28;20421;-47
2022/04/17 02:40:49;;;;;;;9.95;7.32;;;5.60;95.90;;;;;;5041810;28;20036;-46
2022/04/17 02:43:14;;;;;;;11.17;7.87;;;5.60;95.40;;;;;;5046026;28;20688;-48
2022/04/17 02:45:41;;;;;;;8.90;7.13;;;5.70;95.60;;;;;;5030014;28;20045;-46
2022/04/17 02:48:07;;;;;;;12.17;7.33;;;5.60;96.00;;;;;;5034246;28;20045;-46
2022/04/17 02:50:32;;;;;;;10.38;6.72;;;5.60;96.50;;;;;;5035527;28;20068;-47
2022/04/17 02:52:58;;;;;;;13.77;7.05;;;5.60;96.60;;;;;;5048194;28;20041;-46
2022/04/17 02:55:24;;;;;;;7.20;6.50;;;5.60;96.80;;;;;;5037104;28;20036;-46
2022/04/17 02:57:50;;;;;;;8.98;7.25;;;5.60;97.00;;;;;;5047806;28;20036;-47
2022/04/17 03:00:15;;;;;;;9.77;7.33;;;5.50;97.00;;;;;;5039197;28;20520;-46
2022/04/17 03:05:36;;;;;;;12.73;7.82;;;5.40;96.70;;;;;;5031452;28;20053;-46
2022/04/17 03:08:09;;;;;;;9.20;7.28;;;5.40;97.00;;;;;;5031102;28;20414;-46
2022/04/17 03:10:40;;;;;;;14.50;7.38;;;5.40;97.40;;;;;;5039231;28;20041;-46
2022/04/17 03:13:07;;;;;;;9.18;6.85;;;5.40;97.70;;;;;;5038562;28;20038;-46
2022/04/17 03:15:34;;;;;;;9.57;6.85;;;5.40;98.00;;;;;;5046137;28;20415;-46
2022/04/17 03:18:00;;;;;;;9.60;7.10;;;5.30;98.00;;;;;;5031672;28;20037;-47
2022/04/17 03:20:26;;;;;;;8.60;7.07;;;5.30;97.80;;;;;;5044567;28;20036;-46
2022/04/17 03:22:52;;;;;;;9.18;7.28;;;5.30;97.50;;;;;;5043967;28;20051;-46
2022/04/17 03:25:18;;;;;;;10.20;7.23;;;5.20;97.60;;;;;;5037728;28;20037;-47
2022/04/17 03:27:46;;;;;;;12.30;7.30;;;5.10;97.80;;;;;;5047149;28;20039;-47
2022/04/17 03:30:13;;;;;;;12.23;8.90;;;5.10;97.70;;;;;;5034766;28;20368;-46
2022/04/17 03:32:38;;;;;;;13.45;7.65;;;5.10;97.70;;;;;;5048628;28;20360;-46
2022/04/17 03:35:04;;;;;;;9.37;7.43;;;5.10;97.60;;;;;;5038542;28;20040;-50
2022/04/17 03:37:30;;;;;;;11.88;8.55;;;5.10;97.70;;;;;;5050710;28;20032;-46
2022/04/17 03:39:55;;;;;;;11.33;7.67;;;5.10;98.20;;;;;;5033908;28;20514;-49
2022/04/17 03:42:21;;;;;;;11.77;7.53;;;5.10;98.20;;;;;;5050572;28;20041;-47
2022/04/17 03:44:47;;;;;;;8.43;7.55;;;5.10;98.40;;;;;;5047076;28;20041;-46
2022/04/17 03:47:13;;;;;;;9.30;6.80;;;5.10;98.10;;;;;;5049614;28;20101;-49
2022/04/17 03:49:38;;;;;;;9.40;6.77;;;5.10;98.20;;;;;;5033702;28;20380;-46
2022/04/17 03:52:05;;;;;;;8.67;6.40;;;5.10;98.10;;;;;;5033812;28;20053;-48
2022/04/17 03:54:30;;;;;;;9.95;7.40;;;5.10;98.00;;;;;;5032361;28;20034;-50
2022/04/17 03:56:56;;;;;;;10.05;7.68;;;5.00;98.30;;;;;;5035414;28;20098;-47
2022/04/17 03:59:22;;;;;;;8.83;7.20;;;5.00;98.80;;;;;;5040731;28;20044;-48
2022/04/17 04:01:47;;;;;;;11.67;7.10;;;5.00;98.80;;;;;;5045499;28;20029;-46
2022/04/17 04:04:14;;;;;;;11.10;7.27;;;4.90;98.80;;;;;;5050589;28;20447;-49
2022/04/17 04:06:41;;;;;;;15.30;9.00;;;4.90;98.80;;;;;;5036314;28;20045;-48
2022/04/17 04:09:06;;;;;;;13.88;7.50;;;4.90;98.80;;;;;;5046121;28;20041;-50
2022/04/17 04:11:32;;;;;;;10.32;7.63;;;4.90;99.10;;;;;;5033447;28;20099;-49
2022/04/17 04:13:58;;;;;;;9.87;7.53;;;4.90;99.30;;;;;;5030786;28;20052;-48
2022/04/17 04:16:23;;;;;;;9.33;7.43;;;4.90;99.10;;;;;;5044900;28;20036;-47
2022/04/17 04:18:49;;;;;;;8.13;6.77;;;4.90;98.70;;;;;;5039401;28;20041;-47
2022/04/17 04:21:14;;;;;;;8.23;6.20;;;4.80;98.80;;;;;;5029401;28;20057;-48
2022/04/17 04:23:41;;;;;;;9.47;7.10;;;4.80;98.80;;;;;;5037574;28;20049;-47
2022/04/17 04:26:07;;;;;;;11.27;8.00;;;4.70;99.10;;;;;;5048525;28;20049;-46
2022/04/17 04:28:33;;;;;;;10.65;8.63;;;4.70;99.30;;;;;;5048723;28;20047;-45
2022/04/17 04:31:06;;;;;;;9.85;6.80;;;4.70;99.50;;;;;;5050506;28;20526;-46
2022/04/17 04:33:36;;;;;;;11.35;6.53;;;4.70;99.70;;;;;;5034451;28;20080;-46
2022/04/17 04:36:04;;;;;;;8.23;6.28;;;4.60;99.50;;;;;;5047036;28;20038;-46
2022/04/17 04:38:30;;;;;;;10.32;7.55;;;4.50;98.90;;;;;;5042094;28;20033;-45
2022/04/17 04:40:56;;;;;;;9.05;7.13;;;4.40;98.80;;;;;;5048677;28;20060;-47
2022/04/17 04:43:22;;;;;;;9.80;7.53;;;4.30;99.10;;;;;;5041970;28;20420;-48
2022/04/17 04:51:25;;;;;;;10.13;8.38;;;4.30;99.90;;;;;;5048085;28;20100;-47
2022/04/17 04:53:50;;;;;;;12.88;8.60;;;4.30;99.90;;;;;;5047737;28;20041;-46
2022/04/17 04:56:17;;;;;;;11.63;8.37;;;4.30;99.90;;;;;;5043849;28;20037;-47
2022/04/17 04:58:43;;;;;;;13.98;8.52;;;4.30;99.90;;;;;;5038084;28;20343;-46
2022/04/17 05:01:09;;;;;;;13.75;8.52;;;4.30;99.90;;;;;;5032523;28;20041;-46
2022/04/17 05:03:35;;;;;;;10.55;7.78;;;4.40;99.90;;;;;;5030164;28;20042;-48
2022/04/17 05:06:01;;;;;;;11.48;8.95;;;4.40;99.90;;;;;;5029363;28;20041;-45
2022/04/17 05:08:27;;;;;;;12.30;8.63;;;4.40;99.90;;;;;;5030867;28;20048;-47
2022/04/17 05:10:53;;;;;;;14.27;7.67;;;4.40;99.90;;;;;;5038459;28;20047;-47
2022/04/17 05:13:18;;;;;;;10.27;7.45;;;4.40;99.90;;;;;;5033271;28;20091;-48
2022/04/17 05:15:44;;;;;;;12.80;8.27;;;4.30;99.90;;;;;;5033897;28;20040;-46
2022/04/17 05:18:10;;;;;;;9.30;8.30;;;4.40;99.90;;;;;;5045695;28;20033;-46
2022/04/17 05:20:35;;;;;;;14.73;8.43;;;4.40;99.90;;;;;;5049860;28;20120;-46
2022/04/17 05:23:29;;;;;;;10.63;7.97;;;4.40;99.90;;;;;;5047315;28;20037;-49
2022/04/17 05:25:56;;;;;;;11.55;8.52;;;4.40;99.90;;;;;;5034300;28;20038;-46
2022/04/17 05:28:22;;;;;;;12.35;8.18;;;4.50;99.90;;;;;;5036380;28;20090;-46
2022/04/17 05:30:48;;;;;;;12.32;8.43;;;4.50;99.90;;;;;;5043557;28;20033;-47
2022/04/17 05:33:13;;;;;;;11.43;8.35;;;4.50;99.90;;;;;;5036828;28;20036;-47
2022/04/17 05:35:39;;;;;;;14.00;9.43;;;4.60;99.90;;;;;;5042757;28;20120;-49
2022/04/17 05:38:05;;;;;;;11.10;9.17;;;4.70;99.90;;;;;;5044696;28;20037;-49
2022/04/17 05:40:37;;;;;;;12.63;8.93;;;4.70;99.90;;;;;;5039815;28;20091;-46
2022/04/17 05:43:03;;;;;;;14.52;8.98;;;4.80;99.90;;;;;;5040508;28;20044;-46
2022/04/17 05:45:29;;;;;;;13.82;8.95;;;5.00;99.90;;;;;;5029079;28;20041;-46
2022/04/17 05:47:57;;;;;;;12.77;9.32;;;5.10;99.90;;;;;;5029936;28;20387;-47
2022/04/17 05:50:22;;;;;;;11.50;9.18;;;5.20;99.90;;;;;;5029641;28;20490;-47
2022/04/17 05:52:48;;;;;;;10.77;8.57;;;5.30;99.90;;;;;;5029997;28;20080;-48
2022/04/17 05:55:15;;;;;;;12.25;9.07;;;5.40;99.90;;;;;;5029197;28;20037;-46
2022/04/17 05:57:41;;;;;;;12.68;9.50;;;5.50;99.90;;;;;;5044692;28;20045;-48
2022/04/17 06:00:08;;;;;;;14.65;9.25;;;5.60;99.90;;;;;;5029787;28;20038;-47
2022/04/17 06:02:38;;;;;;;13.90;8.68;;;5.70;99.90;;;;;;5027972;28;20160;-46
2022/04/17 06:05:04;;;;;;;12.02;9.95;;;5.80;99.90;;;;;;5046508;28;20045;-50
2022/04/17 06:07:30;;;;;;;12.82;9.00;;;5.80;99.90;;;;;;5049336;28;20129;-48
2022/04/17 06:10:00;;;;;;;12.10;9.10;;;5.90;99.90;;;;;;5047780;28;20115;-46
2022/04/17 06:12:25;;;;;;;14.50;9.30;;;6.10;99.90;;;;;;5049029;28;20045;-48
2022/04/17 06:14:51;;;;;;;14.13;9.10;;;6.20;99.90;;;;;;5030500;28;20041;-45
2022/04/17 06:17:16;;;;;;;11.93;8.77;;;6.30;99.90;;;;;;5029214;28;20092;-49
2022/04/17 06:19:43;;;;;;;16.70;9.80;;;6.40;99.90;;;;;;5029827;28;20037;-48
2022/04/17 06:22:10;;;;;;;12.60;9.80;;;6.50;99.90;;;;;;5034251;28;20487;-48
2022/04/17 06:24:36;;;;;;;13.07;10.55;;;6.50;99.90;;;;;;5050691;28;20557;-49
2022/04/17 06:27:01;;;;;;;13.37;9.67;;;6.60;99.90;;;;;;5032521;28;20172;-46
2022/04/17 06:29:27;;;;;;;13.90;9.73;;;6.70;99.90;;;;;;5036332;28;20091;-46
2022/04/17 06:31:53;;;;;;;13.67;10.43;;;6.80;99.90;;;;;;5044388;28;20033;-45
2022/04/17 06:34:18;;;;;;;18.70;10.60;;;6.90;99.90;;;;;;5041104;28;20365;-45
2022/04/17 06:36:44;;;;;;;14.63;8.53;;;7.00;99.90;;;;;;5052093;28;20045;-45
2022/04/17 06:39:09;;;;;;;21.23;9.33;;;7.10;99.90;;;;;;5034249;28;20038;-48
2022/04/17 06:41:35;;;;;;;13.00;8.93;;;7.30;99.90;;;;;;5032045;28;20034;-48
2022/04/17 06:44:00;;;;;;;13.30;9.20;;;7.40;99.90;;;;;;5033373;28;20079;-46
2022/04/17 06:46:26;;;;;;;13.17;8.93;;;7.50;99.90;;;;;;5037330;28;20090;-46
2022/04/17 06:48:51;;;;;;;10.07;8.83;;;7.60;99.90;;;;;;5051447;28;20574;-49
2022/04/17 06:51:22;;;;;;;13.63;9.43;;;7.70;99.90;;;;;;5031844;28;20075;-46
2022/04/17 06:53:48;;;;;;;14.35;8.68;;;7.70;99.90;;;;;;5042613;28;20800;-47
2022/04/17 06:56:18;;;;;;;15.68;9.48;;;7.80;99.90;;;;;;5050846;28;20037;-47
2022/04/17 06:58:47;;;;;;;11.20;8.80;;;7.90;99.80;;;;;;5044196;28;20076;-47
2022/04/17 07:01:14;;;;;;;11.85;8.35;;;8.00;99.90;;;;;;5038489;28;20042;-48
2022/04/17 07:03:43;;;;;;;17.90;8.85;;;8.10;99.90;;;;;;5042740;28;20773;-48
2022/04/17 07:06:09;;;;;;;12.15;8.57;;;8.20;98.70;;;;;;5041111;28;20076;-46
2022/04/17 07:08:35;;;;;;;10.07;8.17;;;8.20;98.20;;;;;;5042691;28;20072;-46
2022/04/17 07:11:00;;;;;;;11.17;9.10;;;8.30;98.50;;;;;;5041299;28;20124;-46
2022/04/17 07:13:26;;;;;;;11.82;8.40;;;8.40;98.20;;;;;;5041761;28;20487;-49
2022/04/17 07:15:52;;;;;;;10.27;8.50;;;8.50;98.10;;;;;;5040083;28;20053;-46
2022/04/17 07:18:19;;;;;;;13.70;8.98;;;8.50;98.20;;;;;;5037337;28;20047;-48
2022/04/17 07:20:44;;;;;;;;;;;8.60;98.20;;;;;;5041934;28;20044;-49
2022/04/17 07:23:10;;;;;;;12.60;8.88;;;8.70;98.50;;;;;;5040303;28;19917;-46
2022/04/17 07:25:36;;;;;;;11.85;8.82;;;8.80;98.10;;;;;;5039462;28;20072;-46
2022/04/17 07:28:02;;;;;;;11.30;8.65;;;8.90;97.90;;;;;;5032584;28;20033;-47
2022/04/17 07:30:30;;;;;;;11.68;9.00;;;9.00;96.50;;;;;;5031319;28;20509;-47
2022/04/17 07:32:58;;;;;;;10.13;8.38;;;9.00;97.10;;;;;;5030537;28;20052;-46
2022/04/17 07:35:25;;;;;;;11.95;8.15;;;9.10;97.10;;;;;;5029557;28;20041;-46
2022/04/17 07:37:56;;;;;;;14.68;7.90;;;9.20;96.20;;;;;;5045414;28;20033;-49
2022/04/17 07:40:25;;;;;;;10.50;8.10;;;9.30;96.40;;;;;;5043065;28;20418;-46
2022/04/17 07:42:52;;;;;;;11.05;7.30;;;9.40;95.70;;;;;;5031865;28;20077;-48
2022/04/17 07:45:19;;;;;;;9.73;7.35;;;9.40;95.60;;;;;;5036981;28;20041;-47
2022/04/17 07:47:46;;;;;;;11.63;7.35;;;9.50;96.10;;;;;;5040911;28;20049;-47
2022/04/17 07:50:14;;;;;;;7.70;6.90;;;9.70;95.50;;;;;;5047679;28;20029;-45
2022/04/17 07:52:41;;;;;;;8.35;7.13;;;9.70;94.70;;;;;;5032867;28;20498;-48
2022/04/17 07:55:08;;;;;;;13.60;7.70;;;9.80;94.60;;;;;;5050390;28;20071;-46
2022/04/17 07:57:55;;;;;;;9.00;7.07;;;9.90;95.80;;;;;;5047863;28;20167;-48
2022/04/17 08:00:21;;;;;;;11.25;6.93;;;10.00;94.90;;;;;;5050445;28;20072;-48
2022/04/17 08:03:07;;;;;;;8.93;6.80;;;10.10;94.00;;;;;;5040081;28;20037;-46
2022/04/17 08:05:39;;;;;;;9.10;6.53;;;10.10;94.00;;;;;;5030342;28;20091;-47
2022/04/17 08:08:06;;;;;;;10.68;7.65;;;10.20;93.50;;;;;;5044565;28;20524;-48
2022/04/17 08:10:33;;;;;;;7.20;6.10;;;10.40;93.30;;;;;;5035210;28;20052;-49
2022/04/17 08:12:59;;;;;;;8.50;6.43;;;10.40;93.30;;;;;;5031709;28;20042;-48
2022/04/17 08:15:24;;;;;;;7.47;5.40;;;10.60;93.00;;;;;;5030112;28;20129;-51
2022/04/17 08:17:50;;;;;;;7.43;5.03;;;10.60;92.00;;;;;;5030535;28;20038;-49
2022/04/17 08:20:15;;;;;;;7.73;5.70;;;10.70;91.20;;;;;;5046663;28;20119;-49
2022/04/17 08:22:41;;;;;;;8.40;6.67;;;10.80;91.10;;;;;;5048630;28;20052;-47
2022/04/17 08:25:07;;;;;;;5.93;5.07;;;10.90;92.20;;;;;;5048993;28;20329;-48
2022/04/17 08:27:33;;;;;;;7.60;4.93;;;11.00;91.40;;;;;;5039980;28;20606;-48
2022/04/17 08:29:59;;;;;;;6.87;4.73;;;11.10;91.10;;;;;;5030788;28;20147;-48
2022/04/17 08:32:24;;;;;;;;;;;11.10;90.10;;;;;;5035289;28;20044;-50
2022/04/17 08:34:50;;;;;;;5.97;4.90;;;11.10;89.30;;;;;;5043610;28;19943;-48
2022/04/17 08:37:15;;;;;;;8.07;5.67;;;11.20;88.40;;;;;;5049642;28;20041;-48
2022/04/17 08:39:41;;;;;;;5.53;4.97;;;11.20;89.10;;;;;;5036350;28;20118;-48
2022/04/17 08:42:08;;;;;;;6.53;5.23;;;11.30;88.60;;;;;;5030739;28;20124;-48
2022/04/17 08:44:34;;;;;;;8.52;5.00;;;11.40;88.30;;;;;;5039500;28;20411;-49
2022/04/17 08:46:59;;;;;;;6.53;5.27;;;11.40;87.20;;;;;;5049361;28;20148;-48
2022/04/17 08:49:25;;;;;;;7.40;5.30;;;11.50;88.10;;;;;;5048891;28;20395;-48
2022/04/17 08:51:53;;;;;;;10.02;4.82;;;11.50;86.30;;;;;;5049262;28;20445;-51
2022/04/17 08:54:21;;;;;;;7.45;4.68;;;11.60;84.90;;;;;;5043723;28;20076;-49
2022/04/17 08:56:46;;;;;;;5.25;4.65;;;11.70;84.40;;;;;;5029398;28;20076;-51
2022/04/17 08:59:13;;;;;;;4.90;4.10;;;11.80;84.70;;;;;;5043008;28;20068;-49
2022/04/17 09:01:39;;;;;;;6.75;4.43;;;11.90;83.40;;;;;;5049303;28;20282;-48
2022/04/17 09:04:05;;;;;;;;;;;11.90;82.20;;;;;;5047930;28;20441;-50
2022/04/17 09:06:31;;;;;;;5.13;4.65;;;12.00;82.10;;;;;;5032148;28;19920;-47
2022/04/17 09:09:02;;;;;;;7.40;4.38;;;12.00;79.20;;;;;;5029726;28;20049;-46
2022/04/17 09:11:32;;;;;;;7.78;4.03;;;12.00;77.10;;;;;;5030497;28;20069;-47
2022/04/17 09:14:03;;;;;;;6.22;4.35;;;12.10;78.80;;;;;;5030947;28;20033;-47
2022/04/17 09:16:33;;;;;;;5.10;4.60;;;12.10;78.60;;;;;;5029580;28;20160;-48
2022/04/17 09:18:59;;;;;;;5.13;4.20;;;12.20;79.60;;;;;;5031686;28;20045;-48
2022/04/17 09:21:34;;;;;;;7.83;4.87;;;12.30;78.90;;;;;;5039114;28;20038;-51
2022/04/17 09:24:15;;;;;;;8.20;4.15;;;12.40;78.90;;;;;;5046476;28;20284;-48
2022/04/17 09:26:50;;;;;;;6.78;4.40;;;12.40;77.90;;;;;;5048980;28;20447;-54
2022/04/17 09:29:25;;;;;;;5.10;4.60;;;12.50;77.30;;;;;;5040340;28;20056;-51
2022/04/17 09:32:20;;;;;;;5.38;3.72;;;12.60;78.40;;;;;;5029596;28;20491;-49
2022/04/17 09:34:54;;;;;;;14.32;5.13;;;12.70;76.50;;;;;;5038081;28;20068;-48
2022/04/17 09:37:22;;;;;;;5.20;4.65;;;12.70;76.60;;;;;;5031876;28;20069;-48
2022/04/17 09:39:49;;;;;;;3.65;3.22;;;12.80;74.70;;;;;;5033995;28;20037;-48
2022/04/17 09:42:22;;;;;;;12.57;4.10;;;12.80;74.30;;;;;;5033208;28;20502;-50
2022/04/17 09:44:54;;;;;;;33.17;4.85;;;12.90;73.70;;;;;;5046771;28;20488;-50
2022/04/17 09:47:29;;;;;;;6.38;5.05;;;12.90;74.80;;;;;;5041186;28;20433;-49
2022/04/17 09:50:02;;;;;;;9.95;4.65;;;13.00;73.80;;;;;;5034254;28;20033;-53
2022/04/17 09:52:32;;;;;;;15.18;5.63;;;13.10;74.30;;;;;;5048521;28;20133;-48
2022/04/17 09:54:58;;;;;;;3.75;3.38;;;13.10;73.60;;;;;;5043579;28;20165;-48
2022/04/17 09:57:31;;;;;;;5.47;4.25;;;13.20;73.80;;;;;;5033933;28;20033;-48
2022/04/17 10:00:14;;;;;;;4.57;2.78;;;13.30;72.10;;;;;;5033298;28;20033;-49
2022/04/17 10:02:42;;;;;;;7.53;3.25;;;13.40;71.90;;;;;;5031454;28;20045;-48
2022/04/17 10:05:12;;;;;;;6.88;4.50;;;13.50;71.50;;;;;;5038628;28;20508;-49
2022/04/17 10:07:47;;;;;;;5.80;3.10;;;13.60;72.10;;;;;;5051189;28;20179;-51
2022/04/17 10:10:15;;;;;;;5.32;3.45;;;13.70;71.10;;;;;;5037758;28;20051;-48
2022/04/17 10:12:45;;;;;;;4.88;3.20;;;13.80;69.20;;;;;;5047531;28;20048;-51
2022/04/17 10:15:12;;;;;;;5.03;2.97;;;13.90;69.10;;;;;;5049307;28;20079;-52
2022/04/17 10:17:39;;;;;;;4.28;3.88;;;13.90;68.40;;;;;;5050994;28;20413;-49
2022/04/17 10:20:10;;;;;;;5.60;3.17;;;13.90;68.50;;;;;;5052049;28;20069;-51
2022/04/17 10:22:38;;;;;;;6.13;3.38;;;14.00;68.90;;;;;;5041156;28;20285;-49
2022/04/17 10:25:06;;;;;;;6.88;4.18;;;14.00;67.90;;;;;;5032468;28;20041;-51
2022/04/17 10:27:45;;;;;;;4.65;2.92;;;14.10;68.70;;;;;;5048136;28;20041;-49
2022/04/17 10:30:22;;;;;;;6.85;3.90;;;14.20;70.00;;;;;;5036418;28;20061;-48
2022/04/17 10:33:03;;;;;;;3.88;3.35;;;14.30;66.80;;;;;;5042638;28;20120;-49
2022/04/17 10:35:55;;;;;;;8.07;4.10;;;14.30;66.50;;;;;;5033917;28;20056;-48
2022/04/17 10:38:48;;;;;;;6.05;4.13;;;14.30;66.00;;;;;;5033817;28;20041;-53
2022/04/17 10:41:15;;;;;;;4.85;3.50;;;14.40;67.20;;;;;;5032423;28;20053;-48
2022/04/17 10:43:47;;;;;;;9.65;3.75;;;14.50;66.80;;;;;;5046559;28;21129;-48
2022/04/17 10:46:12;;;;;;;3.65;2.33;;;14.40;66.20;;;;;;5049983;28;20171;-49
2022/04/17 10:48:49;;;;;;;5.30;3.23;;;14.50;63.70;;;;;;5033643;28;20443;-49
2022/04/17 10:51:19;;;;;;;4.03;2.85;;;14.60;64.60;;;;;;5032660;28;20034;-49
2022/04/17 10:53:59;;;;;;;3.05;2.05;;;14.60;64.10;;;;;;5046507;28;20456;-52
2022/04/17 10:56:24;;;;;;;3.08;2.67;;;14.70;63.30;;;;;;5032657;28;20041;-49
2022/04/17 10:58:55;;;;;;;3.72;2.17;;;14.80;64.50;;;;;;5039857;28;20033;-49
2022/04/17 11:01:42;;;;;;;4.68;2.05;;;14.80;62.50;;;;;;5051055;28;20068;-51
2022/04/17 11:04:27;;;;;;;4.90;3.00;;;15.00;62.00;;;;;;5050900;28;20065;-49
2022/04/17 11:07:06;;;;;;;4.03;2.72;;;15.00;61.90;;;;;;5030583;28;20052;-49
2022/04/17 11:09:39;;;;;;;2.55;2.08;;;15.00;61.20;;;;;;5039270;28;20045;-50
2022/04/17 11:12:06;;;;;;;3.42;2.55;;;15.10;61.10;;;;;;5032573;28;20582;-50
2022/04/17 11:14:32;;;;;;;4.18;2.95;;;15.10;61.70;;;;;;5032667;28;20030;-52
2022/04/17 11:17:00;;;;;;;3.57;3.27;;;15.20;60.10;;;;;;5031468;28;20052;-49
2022/04/17 11:19:31;;;;;;;3.92;2.90;;;15.20;59.70;;;;;;5044538;28;20294;-49
2022/04/17 11:21:59;;;;;;;5.38;4.22;;;15.20;59.70;;;;;;5046011;28;20073;-48
2022/04/17 11:24:27;;;;;;;3.03;2.28;;;15.20;58.60;;;;;;5049394;28;20383;-48
2022/04/17 11:26:53;;;;;;;5.65;3.80;;;15.20;60.50;;;;;;5050414;28;20099;-49
2022/04/17 11:29:41;;;;;;;5.17;3.60;;;15.30;59.60;;;;;;5034039;28;20045;-48
2022/04/17 11:32:18;;;;;;;5.32;3.50;;;15.40;59.20;;;;;;5034350;28;20299;-48
2022/04/17 11:34:52;;;;;;;4.35;2.95;;;15.40;57.40;;;;;;5033783;28;20069;-47
2022/04/17 11:37:19;;;;;;;4.15;2.75;;;15.40;58.40;;;;;;5032670;28;20034;-47
2022/04/17 11:39:45;;;;;;;5.15;2.97;;;15.50;57.50;;;;;;5043807;28;20037;-47
2022/04/17 11:42:10;;;;;;;3.95;3.55;;;15.50;58.00;;;;;;5045565;28;20039;-48
2022/04/17 11:44:39;;;;;;;4.50;2.95;;;15.50;58.10;;;;;;5030335;28;20045;-48
2022/04/17 11:47:06;;;;;;;5.85;3.45;;;15.60;57.50;;;;;;5032590;28;20430;-48
2022/04/17 11:49:32;;;;;;;3.88;3.05;;;15.60;58.10;;;;;;5031291;28;20052;-50
2022/04/17 11:52:10;;;;;;;;;;;15.80;57.70;;;;;;5031398;28;20710;-48
2022/04/17 11:54:36;;;;;;;3.58;3.03;;;15.80;58.10;;;;;;5030010;28;19976;-48
2022/04/17 11:57:01;;;;;;;4.68;3.53;;;15.90;57.10;;;;;;5034445;28;20487;-48
2022/04/17 11:59:27;;;;;;;6.28;3.00;;;15.90;57.30;;;;;;5030360;28;20040;-48
2022/04/17 12:02:16;;;;;;;4.05;2.67;;;15.90;55.90;;;;;;5033363;28;20445;-48
2022/04/17 12:04:42;;;;;;;3.20;2.55;;;15.80;54.00;;;;;;5030559;28;20045;-48
2022/04/17 12:07:13;;;;;;;4.78;3.90;;;15.90;57.40;;;;;;5033067;28;20041;-48
2022/04/17 12:09:39;;;;;;;4.47;3.47;;;16.00;56.50;;;;;;5034577;28;20106;-48
2022/04/17 12:12:12;;;;;;;3.15;2.85;;;16.10;55.20;;;;;;5037498;28;20045;-48
2022/04/17 12:14:38;;;;;;;2.83;2.30;;;16.20;54.20;;;;;;5050185;28;20059;-50
2022/04/17 12:17:04;;;;;;;3.40;2.33;;;16.30;54.90;;;;;;5049588;28;20034;-48
2022/04/17 12:19:30;;;;;;;7.25;3.25;;;16.30;53.50;;;;;;5030696;28;20041;-48
2022/04/17 12:21:55;;;;;;;3.30;2.58;;;16.40;55.50;;;;;;5032342;28;20792;-49
2022/04/17 12:24:30;;;;;;;4.25;3.00;;;16.40;54.00;;;;;;5031823;28;20674;-48
2022/04/17 12:26:55;;;;;;;3.40;2.80;;;16.50;54.50;;;;;;5030281;28;20099;-48
2022/04/17 12:29:21;;;;;;;3.03;2.38;;;16.50;54.00;;;;;;5048094;28;20072;-47
2022/04/17 12:31:47;;;;;;;3.10;2.40;;;16.50;52.50;;;;;;5049831;28;20555;-48
2022/04/17 12:34:19;;;;;;;5.50;2.83;;;16.50;53.20;;;;;;5031053;28;20083;-52
2022/04/17 12:36:45;;;;;;;4.85;3.15;;;16.50;53.00;;;;;;5028174;28;20045;-50
2022/04/17 12:39:11;;;;;;;3.33;3.03;;;16.60;52.80;;;;;;5031691;28;20092;-49
2022/04/17 12:41:42;;;;;;;3.28;2.45;;;16.60;54.40;;;;;;5030184;28;20037;-48
2022/04/17 12:44:11;;;;;;;4.28;3.47;;;16.70;53.60;;;;;;5031702;28;20403;-51
2022/04/17 12:46:42;;;;;;;3.08;2.45;;;16.70;53.40;;;;;;5029654;28;20072;-50
2022/04/17 12:49:12;;;;;;;4.13;2.88;;;16.80;52.20;;;;;;5030818;28;20306;-50
2022/04/17 12:51:41;;;;;;;3.90;2.53;;;16.80;53.20;;;;;;5030095;28;20044;-49
2022/04/17 12:54:10;;;;;;;4.07;3.20;;;16.80;52.40;;;;;;5039224;28;20059;-51
2022/04/17 12:56:35;;;;;;;4.20;3.30;;;16.90;52.50;;;;;;5028940;28;20038;-50
2022/04/17 12:59:04;;;;;;;2.70;2.35;;;16.90;53.60;;;;;;5039086;28;20087;-51
2022/04/17 13:01:37;;;;;;;5.20;2.17;;;17.00;53.10;;;;;;5043405;28;20045;-50
2022/04/17 13:04:19;;;;;;;4.75;3.25;;;17.00;52.10;;;;;;5031133;28;20497;-51
2022/04/17 13:06:46;;;;;;;4.63;3.08;;;17.00;52.00;;;;;;5029224;28;20040;-50